Google Maps JavaScript API Example
Pilot Flight Report # 94064 Submitted by : AST106 on 2020-05-21
Date: 2020-05-21Aircraft: BAe 146-200
Flight No.: Not AvailableDistance (Nm): 166.72
Departure: LROP - OtopeniDestination: LRCL - Someseni
 TimeFuelWeightSpeeds  
Out (Taxi)0757Z22087 lbs98544 lbs Flight RulesIFR
Off (Takeoff)0759Z 98269 lbs150 ktsFlight LevelFL229
On (Landing)0855Z 93181 lbs127 ktsVSTD-274 ft/min
In (Ramp)0859Z16480 lbs92936 lbs ZFW76454 lbs
Flight0.90  -  0:565092 lbs  Pax0
Block1.03  -  1:025607 lbs  Cargo0
Departure WeatherLROP 200757Z 06522KT 20SM FEW037 BKN043 13/11 A2988
Destination WeatherLRCL 200859Z 01606KT 20SM SKC 16/12 A2994
Flight Comments